createdAt,value
2022-08-08T00:00:53.802Z,44.47
2022-08-08T00:00:54.152Z,41.67
2022-08-08T00:02:03.158Z,41.93
2022-08-08T00:02:46.483Z,40.73
2022-08-08T00:03:45.271Z,41.01
2022-08-08T00:04:49.458Z,42.11
2022-08-08T00:06:02.746Z,42.84
2022-08-08T00:06:46.272Z,41.64
2022-08-08T00:07:45.179Z,42.11
2022-08-08T00:08:49.140Z,42.30
2022-08-08T00:09:45.150Z,41.62
2022-08-08T00:10:46.181Z,41.70
2022-08-08T00:11:46.601Z,41.90
2022-08-08T00:12:48.511Z,42.93
2022-08-08T00:14:15.333Z,43.42
2022-08-08T00:14:48.467Z,43.13
2022-08-08T00:15:56.511Z,41.92
2022-08-08T00:16:46.183Z,45.34
2022-08-08T00:18:02.408Z,42.54
2022-08-08T00:18:46.080Z,41.41
2022-08-08T00:19:51.236Z,41.17
2022-08-08T00:20:46.098Z,41.96
2022-08-08T00:21:45.105Z,40.62
2022-08-08T00:22:45.078Z,41.15
2022-08-08T00:23:51.067Z,40.12
2022-08-08T00:24:46.061Z,41.46
2022-08-08T00:25:50.625Z,41.59
2022-08-08T00:26:46.089Z,43.62
2022-08-08T00:27:45.038Z,40.91
2022-08-08T00:28:44.991Z,44.14
2022-08-08T00:29:46.968Z,41.97
2022-08-08T00:31:00.219Z,42.18
2022-08-08T00:32:28.742Z,42.90
2022-08-08T00:32:46.199Z,40.81
2022-08-08T00:34:17.319Z,42.55
2022-08-08T00:34:46.002Z,41.64
2022-08-08T00:35:48.185Z,41.63
2022-08-08T00:36:44.988Z,42.15
2022-08-08T00:37:57.025Z,41.98
2022-08-08T00:38:51.758Z,43.13
2022-08-08T00:41:10.273Z,42.39
2022-08-08T00:41:10.463Z,42.78
2022-08-08T00:42:08.073Z,41.28
2022-08-08T00:42:46.051Z,41.61
2022-08-08T00:43:46.007Z,41.13
2022-08-08T00:44:45.877Z,42.02
2022-08-08T00:45:44.880Z,43.87
2022-08-08T00:46:56.933Z,41.81
2022-08-08T00:48:02.070Z,41.10
2022-08-08T00:49:00.886Z,42.62
2022-08-08T00:49:57.728Z,42.19
2022-08-08T00:50:48.186Z,41.33
2022-08-08T00:51:45.861Z,41.82
2022-08-08T00:52:48.398Z,41.85
2022-08-08T00:54:04.132Z,41.34
2022-08-08T00:54:45.981Z,41.27
2022-08-08T00:55:53.755Z,40.11
2022-08-08T00:56:45.745Z,40.73
2022-08-08T00:57:44.767Z,42.02
2022-08-08T00:58:54.737Z,42.42
2022-08-08T00:59:46.419Z,44.48
2022-08-08T01:00:44.752Z,44.06
2022-08-08T01:01:45.779Z,43.06
2022-08-08T01:03:59.516Z,43.89
2022-08-08T01:04:01.688Z,44.09
2022-08-08T01:04:47.375Z,42.24
2022-08-08T01:05:59.339Z,41.43
2022-08-08T01:06:47.512Z,42.10
2022-08-08T01:07:55.403Z,42.77
2022-08-08T01:08:50.145Z,44.17
2022-08-08T01:09:48.732Z,43.65
2022-08-08T01:10:44.570Z,43.70
2022-08-08T01:11:51.821Z,44.54
2022-08-08T01:12:45.598Z,43.82
2022-08-08T01:13:45.959Z,41.77
2022-08-08T01:14:53.379Z,42.52
2022-08-08T01:15:53.261Z,42.93
2022-08-08T01:16:46.702Z,43.01
2022-08-08T01:17:55.566Z,42.28
2022-08-08T01:18:53.259Z,46.53
2022-08-08T01:20:02.670Z,45.00
2022-08-08T01:20:45.486Z,45.97
2022-08-08T01:22:10.308Z,45.63
2022-08-08T01:22:45.524Z,45.82
2022-08-08T01:24:02.697Z,45.62
2022-08-08T01:24:50.641Z,43.79
2022-08-08T01:25:45.469Z,45.15
2022-08-08T01:26:49.376Z,46.62
2022-08-08T01:27:46.326Z,47.12
2022-08-08T01:28:44.406Z,46.42
2022-08-08T01:29:59.709Z,46.60
2022-08-08T01:30:45.752Z,47.91
2022-08-08T01:32:13.641Z,45.00
2022-08-08T01:32:45.344Z,46.77
2022-08-08T01:34:00.210Z,45.17
2022-08-08T01:34:45.360Z,44.82
2022-08-08T01:35:44.331Z,44.76
2022-08-08T01:36:48.657Z,46.15
2022-08-08T01:37:57.398Z,43.79
2022-08-08T01:38:45.301Z,44.06
2022-08-08T01:39:44.338Z,43.96
2022-08-08T01:40:44.288Z,41.71
2022-08-08T01:41:44.328Z,42.62
2022-08-08T01:42:44.262Z,42.63
2022-08-08T01:43:44.310Z,41.55
2022-08-08T01:44:44.291Z,41.76
2022-08-08T01:45:45.281Z,43.28
2022-08-08T01:46:47.515Z,42.58
2022-08-08T01:48:13.847Z,43.58
2022-08-08T01:48:46.448Z,42.53
2022-08-08T01:49:44.203Z,43.53
2022-08-08T01:50:44.313Z,42.83
2022-08-08T01:52:29.367Z,42.14
2022-08-08T01:54:01.030Z,42.77
2022-08-08T01:55:17.772Z,44.36
2022-08-08T01:55:18.788Z,45.42
2022-08-08T01:56:28.325Z,46.92
2022-08-08T01:56:46.930Z,44.28
2022-08-08T01:58:11.929Z,44.70
2022-08-08T01:58:46.436Z,45.68
2022-08-08T02:00:02.361Z,45.26
2022-08-08T02:00:48.539Z,44.00
2022-08-08T02:02:00.207Z,44.24
2022-08-08T02:02:45.378Z,43.76
2022-08-08T02:03:56.827Z,44.18
2022-08-08T02:04:45.054Z,44.12
2022-08-08T02:05:56.910Z,44.68
2022-08-08T02:06:45.070Z,45.48
2022-08-08T02:07:48.786Z,44.01
2022-08-08T02:08:45.686Z,42.73
2022-08-08T02:10:02.720Z,44.84
2022-08-08T02:10:45.914Z,46.63
2022-08-08T02:11:59.523Z,47.38
2022-08-08T02:12:45.046Z,44.31
2022-08-08T02:13:53.708Z,43.63
2022-08-08T02:14:55.892Z,43.24
2022-08-08T02:15:44.978Z,43.36
2022-08-08T02:16:43.941Z,43.37
2022-08-08T02:17:43.949Z,44.74
2022-08-08T02:18:43.937Z,45.30
2022-08-08T02:20:07.801Z,46.49
2022-08-08T02:21:01.822Z,46.20
2022-08-08T02:21:44.864Z,45.40
2022-08-08T02:22:52.318Z,42.21
2022-08-08T02:23:44.870Z,41.93
2022-08-08T02:24:44.224Z,43.41
2022-08-08T02:25:48.479Z,47.40
2022-08-08T02:26:44.807Z,46.30
2022-08-08T02:27:43.989Z,45.43
2022-08-08T02:28:48.614Z,44.33
2022-08-08T02:29:51.594Z,46.02
2022-08-08T02:30:49.744Z,45.67
2022-08-08T02:31:59.588Z,48.13
2022-08-08T02:32:44.790Z,46.75
2022-08-08T02:34:00.585Z,45.89
2022-08-08T02:35:08.596Z,47.88
2022-08-08T02:36:04.280Z,48.74
2022-08-08T02:36:44.753Z,47.19
2022-08-08T02:37:51.966Z,46.90
2022-08-08T02:38:48.957Z,45.86
2022-08-08T02:40:00.289Z,45.67
2022-08-08T02:40:45.146Z,48.37
2022-08-08T02:41:58.942Z,45.34
2022-08-08T02:42:44.706Z,47.97
2022-08-08T02:44:37.769Z,49.30
2022-08-08T02:44:54.320Z,50.81
2022-08-08T02:45:54.035Z,48.76
2022-08-08T02:46:44.657Z,47.24
2022-08-08T02:47:46.765Z,50.11
2022-08-08T02:48:45.295Z,48.04
2022-08-08T02:49:47.828Z,48.27
2022-08-08T02:50:52.878Z,48.38
2022-08-08T02:51:55.202Z,47.83
2022-08-08T02:52:50.306Z,46.98
2022-08-08T02:53:44.568Z,46.13
2022-08-08T02:54:43.575Z,45.93
2022-08-08T02:55:43.564Z,46.12
2022-08-08T02:56:43.536Z,47.88
2022-08-08T02:57:44.440Z,48.75
2022-08-08T02:58:43.533Z,44.29
2022-08-08T02:59:57.660Z,44.10
2022-08-08T03:00:50.779Z,44.57
2022-08-08T03:01:50.109Z,44.86
2022-08-08T03:02:50.390Z,46.49
2022-08-08T03:05:00.988Z,44.96
2022-08-08T03:05:03.185Z,44.97
2022-08-08T03:05:45.449Z,45.58
2022-08-08T03:06:43.487Z,50.04
2022-08-08T03:07:57.967Z,48.39
2022-08-08T03:08:44.460Z,47.55
2022-08-08T03:09:44.433Z,43.58
2022-08-08T03:10:44.645Z,45.95
2022-08-08T03:12:01.005Z,46.22
2022-08-08T03:13:02.591Z,45.64
2022-08-08T03:15:58.630Z,46.98
2022-08-08T03:16:03.865Z,46.94
2022-08-08T03:16:04.029Z,49.70
2022-08-08T03:16:44.371Z,46.37
2022-08-08T03:17:43.406Z,49.09
2022-08-08T03:18:44.359Z,49.16
2022-08-08T03:19:50.669Z,48.05
2022-08-08T03:20:46.808Z,50.37
2022-08-08T03:21:58.199Z,49.72
2022-08-08T03:22:44.320Z,52.15
2022-08-08T03:23:59.508Z,49.58
2022-08-08T03:24:44.295Z,49.92
2022-08-08T03:25:43.257Z,51.25
2022-08-08T03:26:43.283Z,53.32
2022-08-08T03:27:43.323Z,51.52
2022-08-08T03:28:43.236Z,53.71
2022-08-08T03:29:56.166Z,47.75
2022-08-08T03:30:44.224Z,49.20
2022-08-08T03:32:05.287Z,49.93
2022-08-08T03:32:47.276Z,51.71
2022-08-08T03:33:55.739Z,46.72
2022-08-08T03:34:44.194Z,52.07
2022-08-08T03:35:43.159Z,47.75
2022-08-08T03:36:44.172Z,51.60
2022-08-08T03:38:53.207Z,48.39
2022-08-08T03:38:54.776Z,49.70
2022-08-08T03:39:51.994Z,46.22
2022-08-08T03:40:46.722Z,48.93
2022-08-08T03:42:27.229Z,47.63
2022-08-08T03:42:45.648Z,47.96
2022-08-08T03:43:43.119Z,48.03
2022-08-08T03:44:47.815Z,50.08
2022-08-08T03:46:04.964Z,52.75
2022-08-08T03:46:44.064Z,55.51
2022-08-08T03:47:45.971Z,47.72
2022-08-08T03:49:56.375Z,47.30
2022-08-08T03:49:59.776Z,51.54
2022-08-08T03:50:44.024Z,47.81
2022-08-08T03:51:51.446Z,49.98
2022-08-08T03:52:45.155Z,50.16
2022-08-08T03:53:47.588Z,47.37
2022-08-08T03:55:01.701Z,52.68
2022-08-08T03:55:56.629Z,48.81
2022-08-08T03:56:46.571Z,50.52
2022-08-08T03:58:31.630Z,47.89
2022-08-08T03:58:47.872Z,48.49
2022-08-08T04:00:02.533Z,50.16
2022-08-08T04:01:02.872Z,50.46
2022-08-08T04:02:12.631Z,48.19
2022-08-08T04:02:51.851Z,46.68
2022-08-08T04:03:58.018Z,46.56
2022-08-08T04:04:43.993Z,50.04
2022-08-08T04:05:48.120Z,47.25
2022-08-08T04:06:43.851Z,50.27
2022-08-08T04:07:42.865Z,48.27
2022-08-08T04:08:46.042Z,46.45
2022-08-08T04:10:02.991Z,48.95
2022-08-08T04:10:43.824Z,49.69
2022-08-08T04:11:57.972Z,47.18
2022-08-08T04:12:43.847Z,50.39
2022-08-08T04:14:03.631Z,46.41
2022-08-08T04:14:44.947Z,49.93
2022-08-08T04:15:55.210Z,48.01
2022-08-08T04:16:43.813Z,47.93
2022-08-08T04:17:58.013Z,48.55
2022-08-08T04:18:48.635Z,51.35
2022-08-08T04:19:43.730Z,48.53
2022-08-08T04:20:42.743Z,50.36
2022-08-08T04:21:45.714Z,52.77
2022-08-08T04:22:42.745Z,50.91
2022-08-08T04:24:19.322Z,46.73
2022-08-08T04:24:43.686Z,47.67
2022-08-08T04:25:43.665Z,48.24
2022-08-08T04:26:57.338Z,54.44
2022-08-08T04:28:03.008Z,52.01
2022-08-08T04:28:43.669Z,53.26
2022-08-08T04:29:55.051Z,51.63
2022-08-08T04:30:44.605Z,51.49
2022-08-08T04:31:59.658Z,50.54
2022-08-08T04:32:47.820Z,53.05
2022-08-08T04:33:43.613Z,51.86
2022-08-08T04:34:49.308Z,50.53
2022-08-08T04:35:50.869Z,53.74
2022-08-08T04:36:43.621Z,54.48
2022-08-08T04:37:43.555Z,54.13
2022-08-08T04:38:43.823Z,53.51
2022-08-08T04:40:05.763Z,50.07
2022-08-08T04:40:54.312Z,51.86
2022-08-08T04:41:43.555Z,47.86
2022-08-08T04:42:46.609Z,49.73
2022-08-08T04:43:46.903Z,51.61
2022-08-08T04:44:43.500Z,51.64
2022-08-08T04:45:42.495Z,49.24
2022-08-08T04:46:42.455Z,51.20
2022-08-08T04:47:46.448Z,54.45
2022-08-08T04:48:42.594Z,53.11
2022-08-08T04:50:01.621Z,50.60
2022-08-08T04:50:45.889Z,53.09
2022-08-08T04:51:55.031Z,53.57
2022-08-08T04:52:43.408Z,48.55
2022-08-08T04:54:36.130Z,49.95
2022-08-08T04:54:43.434Z,55.79
2022-08-08T04:55:55.604Z,48.39
2022-08-08T04:56:43.369Z,49.39
2022-08-08T04:57:42.365Z,51.96
2022-08-08T04:58:42.429Z,48.19
2022-08-08T04:59:42.739Z,48.97
2022-08-08T05:00:42.372Z,51.17
2022-08-08T05:01:48.392Z,50.82
2022-08-08T05:02:43.377Z,51.25
2022-08-08T05:04:08.363Z,53.02
2022-08-08T05:04:44.619Z,52.93
2022-08-08T05:05:45.411Z,49.11
2022-08-08T05:06:42.362Z,51.85
2022-08-08T05:07:42.791Z,50.09
2022-08-08T05:08:42.258Z,49.62
2022-08-08T05:09:42.254Z,49.19
2022-08-08T05:10:42.241Z,47.95
2022-08-08T05:11:42.253Z,51.03
2022-08-08T05:12:59.987Z,52.48
2022-08-08T05:13:58.191Z,52.96
2022-08-08T05:14:43.211Z,50.17
2022-08-08T05:16:52.129Z,50.70
2022-08-08T05:16:54.787Z,48.72
2022-08-08T05:17:54.138Z,50.80
2022-08-08T05:18:43.206Z,53.22
2022-08-08T05:20:11.421Z,56.51
2022-08-08T05:20:50.337Z,51.70
2022-08-08T05:21:43.705Z,50.91
2022-08-08T05:22:43.142Z,50.60
2022-08-08T05:23:46.083Z,46.14
2022-08-08T05:24:42.135Z,45.45
2022-08-08T05:25:43.238Z,52.84
2022-08-08T05:26:42.075Z,48.24
2022-08-08T05:27:44.426Z,48.74
2022-08-08T05:28:56.409Z,54.80
2022-08-08T05:29:43.090Z,49.74
2022-08-08T05:30:47.405Z,48.76
2022-08-08T05:32:03.577Z,50.13
2022-08-08T05:32:43.560Z,53.17
2022-08-08T05:33:44.242Z,50.41
2022-08-08T05:34:43.491Z,52.90
2022-08-08T05:35:42.016Z,47.36
2022-08-08T05:36:42.130Z,47.87
2022-08-08T05:37:52.929Z,53.63
2022-08-08T05:38:43.023Z,50.87
2022-08-08T05:39:42.016Z,49.47
2022-08-08T05:40:41.934Z,51.96
2022-08-08T05:41:46.294Z,49.32
2022-08-08T05:42:42.896Z,52.65
2022-08-08T05:44:03.734Z,49.81
2022-08-08T05:44:42.900Z,52.92
2022-08-08T05:45:53.063Z,52.05
2022-08-08T05:46:42.886Z,47.90
2022-08-08T05:47:59.804Z,47.99
2022-08-08T05:48:42.856Z,52.28
2022-08-08T05:49:41.894Z,46.96
2022-08-08T05:50:42.854Z,53.66
2022-08-08T05:51:48.472Z,52.65
2022-08-08T05:52:42.809Z,52.40
2022-08-08T05:54:24.886Z,50.87
2022-08-08T05:54:50.229Z,47.32
2022-08-08T05:56:07.875Z,52.27
2022-08-08T05:56:47.448Z,50.67
2022-08-08T05:58:04.538Z,46.61
2022-08-08T05:58:53.532Z,49.48
2022-08-08T05:59:53.674Z,46.61
2022-08-08T06:00:44.449Z,52.67
2022-08-08T06:01:55.565Z,46.58
2022-08-08T06:02:43.508Z,48.78
2022-08-08T06:03:42.102Z,49.10
2022-08-08T06:04:41.725Z,48.55
2022-08-08T06:05:42.688Z,49.46
2022-08-08T06:06:41.675Z,53.02
2022-08-08T06:07:43.790Z,49.10
2022-08-08T06:08:53.378Z,48.13
2022-08-08T06:10:00.360Z,52.93
2022-08-08T06:10:42.713Z,53.29
2022-08-08T06:11:46.006Z,50.75
2022-08-08T06:12:43.453Z,54.82
2022-08-08T06:13:47.256Z,49.98
2022-08-08T06:14:47.890Z,54.28
2022-08-08T06:15:53.329Z,50.46
2022-08-08T06:16:42.653Z,51.59
2022-08-08T06:17:50.866Z,49.21
2022-08-08T06:18:42.958Z,46.69
2022-08-08T06:19:41.646Z,48.00
2022-08-08T06:20:41.610Z,49.36
2022-08-08T06:21:48.821Z,46.78
2022-08-08T06:22:42.579Z,51.18
2022-08-08T06:23:53.126Z,49.69
2022-08-08T06:24:47.091Z,51.36
2022-08-08T06:26:39.010Z,46.88
2022-08-08T06:26:45.287Z,47.67
2022-08-08T06:27:47.582Z,51.77
2022-08-08T06:28:42.468Z,48.81
2022-08-08T06:29:56.830Z,45.92
2022-08-08T06:30:42.472Z,47.48
2022-08-08T06:32:09.103Z,52.48
2022-08-08T06:32:42.414Z,50.48
2022-08-08T06:34:25.505Z,48.14
2022-08-08T06:34:42.432Z,44.63
2022-08-08T06:36:09.241Z,44.74
2022-08-08T06:36:53.621Z,43.12
2022-08-08T06:37:43.669Z,52.23
2022-08-08T06:38:42.786Z,46.86
2022-08-08T06:39:56.111Z,49.09
2022-08-08T06:40:48.829Z,45.44
2022-08-08T06:41:42.328Z,51.69
2022-08-08T06:42:42.343Z,47.14
2022-08-08T06:43:41.315Z,44.82
2022-08-08T06:44:42.686Z,56.88
2022-08-08T06:45:42.293Z,46.07
2022-08-08T06:46:41.291Z,47.22
2022-08-08T06:47:52.705Z,49.08
2022-08-08T06:48:42.431Z,51.14
2022-08-08T06:49:56.858Z,49.93
2022-08-08T06:50:42.304Z,51.12
2022-08-08T06:51:49.055Z,49.87
2022-08-08T06:52:42.953Z,45.51
2022-08-08T06:53:50.835Z,47.64
2022-08-08T06:54:42.195Z,42.27
2022-08-08T06:55:41.684Z,49.49
2022-08-08T06:56:41.184Z,42.31
2022-08-08T06:57:54.801Z,38.32
2022-08-08T06:58:42.213Z,46.68
2022-08-08T07:00:02.548Z,45.54
2022-08-08T07:00:42.133Z,50.13
2022-08-08T07:02:17.232Z,43.35
2022-08-08T07:02:45.376Z,46.65
2022-08-08T07:04:35.034Z,50.39
2022-08-08T07:04:47.907Z,48.66
2022-08-08T07:05:43.113Z,43.95
2022-08-08T07:06:42.114Z,51.96
2022-08-08T07:07:41.136Z,47.44
2022-08-08T07:08:41.154Z,41.73
2022-08-08T07:09:45.312Z,41.19
2022-08-08T07:10:45.972Z,44.52
2022-08-08T07:11:50.623Z,36.80
2022-08-08T07:12:43.003Z,41.95
2022-08-08T07:14:00.563Z,43.70
2022-08-08T07:14:42.029Z,46.28
2022-08-08T07:16:05.599Z,43.46
2022-08-08T07:16:51.169Z,40.22
2022-08-08T07:18:01.451Z,37.75
2022-08-08T07:18:42.068Z,53.05
2022-08-08T07:19:40.968Z,37.69
2022-08-08T07:20:50.459Z,47.52
2022-08-08T07:21:41.950Z,42.45
2022-08-08T07:22:40.951Z,39.29
2022-08-08T07:24:01.818Z,35.44
2022-08-08T07:24:42.022Z,38.62
2022-08-08T07:25:54.087Z,41.39
2022-08-08T07:26:41.950Z,34.65
2022-08-08T07:27:46.974Z,42.22
2022-08-08T07:28:41.963Z,35.89
2022-08-08T07:30:02.533Z,43.95
2022-08-08T07:31:54.433Z,41.48
2022-08-08T07:32:29.903Z,0.00
2022-08-08T08:22:16.028Z,45.43
2022-08-08T08:23:16.044Z,44.07
2022-08-08T08:24:15.539Z,40.84
2022-08-08T08:25:19.182Z,39.74
2022-08-08T08:26:15.058Z,44.34
2022-08-08T08:27:17.707Z,39.23
2022-08-08T08:28:21.167Z,46.24
2022-08-08T10:59:22.246Z,45.52
2022-08-08T11:00:21.272Z,35.38
2022-08-08T11:01:21.762Z,42.22
2022-08-08T11:02:22.336Z,44.51
2022-08-08T11:03:36.340Z,37.31
2022-08-08T11:04:29.531Z,46.48
2022-08-08T11:05:23.073Z,41.58
2022-08-08T11:06:21.147Z,39.47
2022-08-08T11:08:30.188Z,37.66
2022-08-08T11:08:38.865Z,42.12
2022-08-08T11:09:22.959Z,37.18
2022-08-08T11:10:28.797Z,40.85
2022-08-08T11:11:59.759Z,43.26
2022-08-08T11:12:22.114Z,36.95
2022-08-08T11:13:31.737Z,38.72
2022-08-08T11:14:26.256Z,39.66
2022-08-08T11:15:21.083Z,43.77
2022-08-08T11:16:32.153Z,36.01
2022-08-08T11:17:58.621Z,42.15
2022-08-08T11:18:22.043Z,44.57
2022-08-08T11:19:21.071Z,35.75
2022-08-08T11:20:27.711Z,36.56
2022-08-08T11:21:22.005Z,36.74
2022-08-08T11:22:20.991Z,39.52
2022-08-08T11:23:21.998Z,41.75
2022-08-08T11:24:20.970Z,43.89
2022-08-08T11:25:20.992Z,43.04
2022-08-08T11:26:27.904Z,40.17
2022-08-08T11:27:23.466Z,43.79
2022-08-08T11:28:21.947Z,40.71
2022-08-08T11:29:20.972Z,40.86
2022-08-08T11:30:24.955Z,42.17
2022-08-08T11:31:21.903Z,42.39
2022-08-08T11:32:20.895Z,40.10
2022-08-08T11:33:21.908Z,41.73
2022-08-08T11:34:23.551Z,44.54
2022-08-08T11:35:27.314Z,43.04
2022-08-08T11:36:21.855Z,39.64
2022-08-08T11:38:34.677Z,44.09
2022-08-08T11:38:35.184Z,41.69
2022-08-08T11:39:21.850Z,40.75
2022-08-08T11:40:25.768Z,47.61
2022-08-08T11:41:21.803Z,42.84
2022-08-08T11:42:26.695Z,42.14
2022-08-08T11:43:24.509Z,42.84
2022-08-08T11:44:28.783Z,43.79
2022-08-08T11:45:21.770Z,40.64
2022-08-08T11:46:20.762Z,39.11
2022-08-08T11:47:21.029Z,37.93
2022-08-08T11:48:20.995Z,43.69
2022-08-08T11:49:20.729Z,42.45
2022-08-08T11:50:23.481Z,38.61
2022-08-08T11:51:29.888Z,39.16
2022-08-08T11:52:27.402Z,42.20
2022-08-08T11:53:24.356Z,41.74
2022-08-08T11:54:31.203Z,39.47
2022-08-08T11:55:21.674Z,42.96
2022-08-08T11:56:20.660Z,40.56
2022-08-08T11:57:23.859Z,42.47
2022-08-08T11:58:21.784Z,37.88
2022-08-08T11:59:20.647Z,44.43
2022-08-08T12:00:21.618Z,35.09
2022-08-08T12:01:20.619Z,39.33
2022-08-08T12:02:32.631Z,42.97
2022-08-08T12:03:21.658Z,37.90
2022-08-08T12:04:20.608Z,35.11
2022-08-08T12:05:22.765Z,39.63
2022-08-08T12:06:20.566Z,43.34
2022-08-08T12:07:20.554Z,39.52
2022-08-08T12:08:20.556Z,40.86
2022-08-08T12:09:20.536Z,39.60
2022-08-08T12:10:20.533Z,43.13
2022-08-08T12:11:27.075Z,41.66
2022-08-08T12:12:28.552Z,40.96
2022-08-08T12:13:38.319Z,38.29
2022-08-08T12:14:22.682Z,36.04
2022-08-08T12:15:41.766Z,45.33
2022-08-08T12:16:31.712Z,40.39
2022-08-08T12:17:23.355Z,35.51
2022-08-08T12:18:24.295Z,39.02
2022-08-08T12:19:22.118Z,40.28
2022-08-08T12:20:23.276Z,34.00
2022-08-08T12:21:21.763Z,45.26
2022-08-08T12:22:23.310Z,36.29
2022-08-08T12:23:30.502Z,35.54
2022-08-08T12:24:28.033Z,37.42
2022-08-08T12:25:24.714Z,38.70
2022-08-08T12:26:28.567Z,42.98
2022-08-08T12:27:26.485Z,42.59
2022-08-08T12:28:21.915Z,39.31
2022-08-08T12:29:55.530Z,37.37
2022-08-08T12:30:51.059Z,36.58
2022-08-08T12:31:22.572Z,43.00
2022-08-08T12:32:24.891Z,46.17
2022-08-08T12:33:21.512Z,41.73
2022-08-08T12:35:54.458Z,34.99
2022-08-08T12:35:56.048Z,0.00
2022-08-08T12:36:56.910Z,36.95
2022-08-08T12:38:02.187Z,36.79
2022-08-08T12:44:39.642Z,39.96
2022-08-08T12:45:57.829Z,42.50
2022-08-08T12:46:39.643Z,46.69
2022-08-08T12:48:04.389Z,37.00
2022-08-08T12:48:39.697Z,41.67
2022-08-08T12:49:43.066Z,43.42
2022-08-08T12:50:39.588Z,38.84
2022-08-08T12:51:39.839Z,43.11
2022-08-08T12:52:40.444Z,32.88
2022-08-08T12:53:42.403Z,41.23
2022-08-08T12:54:40.867Z,54.78
2022-08-08T12:56:05.924Z,37.61
2022-08-08T12:56:39.571Z,36.99
2022-08-08T12:57:49.899Z,40.47
2022-08-08T12:58:39.599Z,39.25
2022-08-08T12:59:45.130Z,37.89
2022-08-08T13:00:39.552Z,35.31
2022-08-08T13:01:38.563Z,44.51
2022-08-08T13:02:42.201Z,39.86
2022-08-08T13:03:41.956Z,34.31
2022-08-08T13:04:38.465Z,44.50
2022-08-08T13:06:05.634Z,38.19
2022-08-08T13:06:39.438Z,45.70
2022-08-08T13:08:02.857Z,39.56
2022-08-08T13:08:39.441Z,43.36
2022-08-08T13:09:43.353Z,37.07
2022-08-08T13:10:46.130Z,37.34
2022-08-08T13:12:17.973Z,37.20
2022-08-08T13:12:44.461Z,32.71
2022-08-08T13:13:39.391Z,33.13
2022-08-08T13:14:38.366Z,38.84
2022-08-08T13:15:40.535Z,39.02
2022-08-08T13:16:39.541Z,42.77
2022-08-08T13:18:09.181Z,39.18
2022-08-08T13:18:55.754Z,43.16
2022-08-08T13:19:49.634Z,42.40
2022-08-08T13:20:40.541Z,32.43
2022-08-08T13:21:53.711Z,41.08
2022-08-08T13:22:40.565Z,35.02
2022-08-08T13:23:46.558Z,43.71
2022-08-08T13:24:48.102Z,41.04
2022-08-08T13:25:40.457Z,39.63
2022-08-08T13:26:39.413Z,32.79
2022-08-08T13:27:40.418Z,35.19
2022-08-08T13:28:42.098Z,40.03
2022-08-08T13:29:40.942Z,42.04
2022-08-08T13:30:39.381Z,42.10
2022-08-08T13:31:39.386Z,39.91
2022-08-08T13:32:39.704Z,32.09
2022-08-08T13:33:42.689Z,41.19
2022-08-08T13:35:02.147Z,37.67
2022-08-08T13:38:06.331Z,39.95
2022-08-08T13:38:52.885Z,0.00
2022-08-08T13:47:58.199Z,34.32
2022-08-08T13:50:34.830Z,38.97
2022-08-08T13:50:35.329Z,42.82
2022-08-08T13:51:33.414Z,36.50
2022-08-08T13:51:55.805Z,41.04
2022-08-08T13:52:55.570Z,31.65
2022-08-08T13:54:00.007Z,40.82
2022-08-08T13:54:55.748Z,42.74
2022-08-08T13:55:54.792Z,38.52
2022-08-08T13:56:59.928Z,37.98
2022-08-08T13:58:07.812Z,43.15
2022-08-08T13:58:57.387Z,36.15
2022-08-08T13:59:54.726Z,40.67
2022-08-08T14:00:54.803Z,45.33
2022-08-08T14:01:57.187Z,41.61
2022-08-08T14:02:54.960Z,39.89
2022-08-08T14:03:56.043Z,39.04
2022-08-08T14:04:55.672Z,39.34
2022-08-08T14:06:01.147Z,33.02
2022-08-08T14:06:55.693Z,42.32
2022-08-08T14:07:59.534Z,40.21
2022-08-08T14:09:24.443Z,45.17
2022-08-08T14:10:04.343Z,33.82
2022-08-08T14:11:55.883Z,42.85
2022-08-08T14:12:54.595Z,42.86
2022-08-08T14:14:00.416Z,41.68
2022-08-08T14:14:55.607Z,44.46
2022-08-08T14:15:54.615Z,41.70
2022-08-08T14:16:55.460Z,38.86
2022-08-08T14:18:35.789Z,44.37
2022-08-08T16:13:02.254Z,43.32
2022-08-08T16:13:13.851Z,41.07
2022-08-08T16:13:20.476Z,39.22
2022-08-08T16:13:45.799Z,37.00
2022-08-08T16:14:34.773Z,41.22
2022-08-08T16:15:33.773Z,44.87
2022-08-08T16:16:36.386Z,44.64
2022-08-08T16:18:06.443Z,34.39
2022-08-08T16:18:38.806Z,47.48
2022-08-08T16:20:00.148Z,43.82
2022-08-08T16:20:34.723Z,42.61
2022-08-08T16:21:33.708Z,36.70
2022-08-08T16:22:35.415Z,36.01
2022-08-08T16:23:39.943Z,36.48
2022-08-08T16:24:39.061Z,35.98
2022-08-08T16:25:45.905Z,35.86
2022-08-08T16:26:35.795Z,36.37
2022-08-08T16:27:42.489Z,36.80
2022-08-08T16:28:37.342Z,39.35
2022-08-08T16:30:08.754Z,39.59
2022-08-08T16:30:36.652Z,37.08
2022-08-08T16:31:33.608Z,43.69
2022-08-08T16:32:33.797Z,44.23
2022-08-08T16:33:38.081Z,41.91
2022-08-08T16:34:34.608Z,32.58
2022-08-08T16:35:33.592Z,35.61
2022-08-08T16:36:34.376Z,37.56
2022-08-08T16:37:33.551Z,44.22
2022-08-08T16:38:33.552Z,41.02
2022-08-08T16:40:00.506Z,40.62
2022-08-08T16:40:34.612Z,40.87
2022-08-08T16:41:33.559Z,36.91
2022-08-08T16:42:34.913Z,34.18
2022-08-08T16:43:42.039Z,38.35
2022-08-08T16:44:34.698Z,44.91
2022-08-08T16:46:37.653Z,33.68
2022-08-08T16:46:44.863Z,36.53
2022-08-08T16:47:42.144Z,41.10
2022-08-08T16:48:37.026Z,42.82
2022-08-08T16:49:38.537Z,39.50
2022-08-08T16:50:35.352Z,46.13
2022-08-08T16:55:01.614Z,36.26
2022-08-08T16:55:02.064Z,34.58
2022-08-08T16:55:04.079Z,37.48
2022-08-08T16:55:06.025Z,35.22
2022-08-08T16:55:55.652Z,38.86
2022-08-08T16:56:34.376Z,42.80
2022-08-08T16:58:16.619Z,39.59
2022-08-08T16:58:34.881Z,41.91
2022-08-08T16:59:50.796Z,40.71
2022-08-08T17:00:34.405Z,40.36
2022-08-08T17:01:35.623Z,40.15
2022-08-08T17:02:39.742Z,42.96
2022-08-08T17:03:58.973Z,41.76
2022-08-08T17:04:34.291Z,39.74
2022-08-08T17:05:45.092Z,35.98
2022-08-08T17:06:43.385Z,37.20
2022-08-08T17:07:37.549Z,43.86
2022-08-08T17:08:34.421Z,47.20
2022-08-08T17:09:44.885Z,39.76
2022-08-08T17:10:35.394Z,37.57
2022-08-08T17:11:39.294Z,40.21
2022-08-08T17:12:36.687Z,38.36
2022-08-08T17:13:49.822Z,41.07
2022-08-08T17:14:35.353Z,36.19
2022-08-08T17:15:34.594Z,36.03
2022-08-08T17:16:35.342Z,43.60
2022-08-08T17:18:01.279Z,39.71
2022-08-08T17:18:35.340Z,43.77
2022-08-08T17:19:41.052Z,49.76
2022-08-08T17:20:39.494Z,35.80
2022-08-08T17:21:34.326Z,38.24
2022-08-08T17:22:42.159Z,40.12
2022-08-08T17:24:00.375Z,34.94
2022-08-08T17:24:35.294Z,35.21
2022-08-08T17:25:51.973Z,39.76
2022-08-08T17:26:35.296Z,39.45
2022-08-08T17:27:46.285Z,36.70
2022-08-08T17:28:35.723Z,44.60
2022-08-08T17:29:36.498Z,34.56
2022-08-08T17:30:35.205Z,34.82
2022-08-08T17:31:44.373Z,37.54
2022-08-08T17:34:30.261Z,39.27
2022-08-08T17:34:37.434Z,39.17
2022-08-08T17:35:04.213Z,35.51
2022-08-08T17:35:54.418Z,38.68
2022-08-08T17:36:35.164Z,44.05
2022-08-08T17:37:34.183Z,38.36
2022-08-08T17:38:34.140Z,44.37
2022-08-08T17:40:03.211Z,42.05
2022-08-08T17:40:35.164Z,41.71
2022-08-08T17:41:38.889Z,38.20
2022-08-08T17:42:35.102Z,46.54
2022-08-08T17:44:01.189Z,41.22
2022-08-08T17:44:37.451Z,40.31
2022-08-08T17:45:36.509Z,39.64
2022-08-08T17:46:34.070Z,34.75
2022-08-08T17:47:40.141Z,43.29
2022-08-08T17:48:35.034Z,39.86
2022-08-08T17:49:42.715Z,45.17
2022-08-08T17:50:35.016Z,38.83
2022-08-08T17:51:34.054Z,34.90
2022-08-08T17:52:35.403Z,38.78
2022-08-08T17:53:43.122Z,42.20
2022-08-08T17:54:35.329Z,34.69
2022-08-08T17:56:06.677Z,41.64
2022-08-08T17:56:34.989Z,34.98
2022-08-08T17:57:35.438Z,34.82
2022-08-08T17:58:34.047Z,38.72
2022-08-08T17:59:36.406Z,38.21
2022-08-08T18:00:38.999Z,38.88
2022-08-08T18:01:50.971Z,36.53
2022-08-08T18:02:35.997Z,42.61
2022-08-08T18:03:33.976Z,46.07
2022-08-08T18:04:33.884Z,43.85
2022-08-08T18:05:44.154Z,43.55
2022-08-08T18:06:34.895Z,41.00
2022-08-08T18:08:02.187Z,35.46
2022-08-08T18:08:38.187Z,38.75
2022-08-08T18:09:37.980Z,35.74
2022-08-08T18:10:33.829Z,38.98
2022-08-08T18:11:36.579Z,45.23
2022-08-08T18:12:33.848Z,39.09
2022-08-08T18:13:35.040Z,38.45
2022-08-08T18:14:34.806Z,41.72
2022-08-08T18:15:33.794Z,38.48
2022-08-08T18:16:34.818Z,34.73
2022-08-08T18:18:09.382Z,39.33
2022-08-08T18:18:38.704Z,42.46
2022-08-08T18:19:45.829Z,35.77
2022-08-08T18:20:43.560Z,34.97